createdAt,value
2018-09-23T00:00:22.819Z,14.80
2018-09-23T00:02:50.952Z,14.80
2018-09-23T00:05:19.149Z,14.80
2018-09-23T00:07:47.376Z,14.80
2018-09-23T00:10:15.595Z,14.80
2018-09-23T00:12:43.780Z,14.80
2018-09-23T00:15:12.011Z,14.80
2018-09-23T00:17:40.122Z,14.80
2018-09-23T00:20:08.319Z,14.60
2018-09-23T00:22:36.457Z,14.60
2018-09-23T00:25:04.845Z,14.50
2018-09-23T00:27:33.176Z,14.40
2018-09-23T00:30:01.595Z,14.40
2018-09-23T00:32:29.804Z,14.30
2018-09-23T00:34:57.988Z,14.30
2018-09-23T00:37:26.148Z,14.20
2018-09-23T00:39:54.376Z,14.10
2018-09-23T00:42:22.556Z,14.10
2018-09-23T00:44:50.729Z,14.00
2018-09-23T00:47:18.930Z,13.90
2018-09-23T00:49:47.074Z,13.80
2018-09-23T00:52:15.225Z,13.70
2018-09-23T00:54:43.368Z,13.60
2018-09-23T00:57:11.548Z,13.40
2018-09-23T00:59:39.652Z,13.30
2018-09-23T01:02:07.995Z,13.40
2018-09-23T01:04:36.235Z,13.30
2018-09-23T01:07:04.456Z,13.30
2018-09-23T01:09:33.213Z,13.20
2018-09-23T01:12:02.179Z,13.20
2018-09-23T01:14:30.392Z,13.20
2018-09-23T01:16:58.597Z,13.10
2018-09-23T01:19:26.743Z,13.10
2018-09-23T01:21:54.842Z,13.00
2018-09-23T01:24:23.006Z,12.80
2018-09-23T01:26:51.148Z,12.80
2018-09-23T01:29:19.235Z,12.80
2018-09-23T01:31:47.383Z,12.90
2018-09-23T01:34:15.538Z,12.90
2018-09-23T01:36:43.738Z,13.00
2018-09-23T01:39:11.912Z,13.00
2018-09-23T01:41:40.923Z,12.90
2018-09-23T01:44:09.051Z,12.80
2018-09-23T01:46:37.150Z,12.80
2018-09-23T01:49:05.324Z,12.90
2018-09-23T01:51:33.516Z,12.90
2018-09-23T01:54:01.654Z,12.90
2018-09-23T01:56:29.772Z,12.90
2018-09-23T01:58:57.937Z,12.80
2018-09-23T02:01:26.075Z,12.70
2018-09-23T02:03:54.173Z,12.70
2018-09-23T02:06:22.354Z,12.70
2018-09-23T02:08:50.544Z,12.70
2018-09-23T02:11:18.759Z,12.70
2018-09-23T02:13:46.879Z,12.80
2018-09-23T02:16:15.076Z,12.90
2018-09-23T02:18:43.180Z,12.90
2018-09-23T02:21:11.419Z,13.00
2018-09-23T02:23:39.477Z,13.00
2018-09-23T02:26:07.683Z,13.10
2018-09-23T02:28:35.832Z,13.10
2018-09-23T02:31:04.052Z,13.10
2018-09-23T02:33:32.208Z,12.80
2018-09-23T02:36:00.347Z,12.70
2018-09-23T02:38:28.584Z,12.80
2018-09-23T02:40:56.726Z,12.90
2018-09-23T02:43:24.915Z,12.80
2018-09-23T02:45:53.033Z,12.90
2018-09-23T02:48:21.116Z,12.80
2018-09-23T02:50:49.256Z,12.80
2018-09-23T02:53:17.389Z,12.90
2018-09-23T02:55:45.600Z,12.90
2018-09-23T02:58:13.880Z,12.90
2018-09-23T03:00:42.004Z,12.90
2018-09-23T03:03:10.256Z,12.90
2018-09-23T03:05:38.467Z,12.90
2018-09-23T03:08:06.614Z,13.00
2018-09-23T03:10:34.779Z,13.00
2018-09-23T03:13:03.788Z,13.10
2018-09-23T03:15:31.955Z,13.20
2018-09-23T03:18:00.079Z,13.20
2018-09-23T03:20:28.297Z,13.10
2018-09-23T03:22:56.422Z,12.90
2018-09-23T03:25:24.619Z,12.90
2018-09-23T03:27:52.819Z,12.90
2018-09-23T03:30:21.092Z,13.00
2018-09-23T03:32:49.183Z,13.00
2018-09-23T03:35:17.295Z,13.00
2018-09-23T03:37:45.483Z,13.00
2018-09-23T03:40:13.696Z,13.10
2018-09-23T03:42:42.109Z,13.20
2018-09-23T03:45:10.268Z,13.30
2018-09-23T03:47:38.475Z,13.30
2018-09-23T03:50:06.592Z,13.40
2018-09-23T03:52:34.776Z,13.50
2018-09-23T03:55:02.976Z,13.50
2018-09-23T03:57:31.104Z,13.60
2018-09-23T03:59:59.304Z,13.60
2018-09-23T04:02:28.139Z,13.70
2018-09-23T04:04:56.307Z,13.70
2018-09-23T04:07:24.565Z,13.70
2018-09-23T04:09:52.793Z,13.70
2018-09-23T04:12:21.016Z,13.80
2018-09-23T04:14:49.206Z,13.80
2018-09-23T04:17:17.359Z,13.80
2018-09-23T04:19:45.544Z,13.90
2018-09-23T04:22:13.711Z,14.00
2018-09-23T04:24:41.821Z,14.10
2018-09-23T04:27:10.038Z,14.10
2018-09-23T04:29:38.276Z,14.20
2018-09-23T04:32:06.460Z,14.20
2018-09-23T04:34:34.716Z,14.30
2018-09-23T04:37:02.828Z,14.30
2018-09-23T04:39:31.052Z,14.40
2018-09-23T04:41:59.269Z,14.40
2018-09-23T04:44:27.416Z,14.40
2018-09-23T04:46:55.583Z,14.50
2018-09-23T04:49:23.727Z,14.50
2018-09-23T04:51:51.897Z,14.60
2018-09-23T04:54:20.042Z,14.70
2018-09-23T04:56:48.215Z,14.70
2018-09-23T04:59:16.390Z,14.70
2018-09-23T05:01:44.516Z,14.70
2018-09-23T05:04:12.650Z,14.70
2018-09-23T05:06:40.851Z,14.80
2018-09-23T05:09:10.069Z,14.80
2018-09-23T05:11:38.284Z,14.90
2018-09-23T05:14:06.703Z,14.90
2018-09-23T05:16:34.910Z,14.90
2018-09-23T05:19:03.217Z,15.00
2018-09-23T05:21:31.549Z,15.00
2018-09-23T05:23:59.733Z,15.00
2018-09-23T05:26:27.952Z,15.10
2018-09-23T05:28:56.106Z,15.10
2018-09-23T05:31:24.328Z,15.20
2018-09-23T05:33:57.096Z,15.20
2018-09-23T05:36:25.300Z,15.30
2018-09-23T05:38:53.405Z,15.30
2018-09-23T05:41:21.536Z,15.40
2018-09-23T05:43:49.707Z,15.40
2018-09-23T05:46:18.055Z,15.50
2018-09-23T05:48:46.205Z,15.50
2018-09-23T05:51:14.305Z,15.50
2018-09-23T05:53:42.560Z,15.60
2018-09-23T05:56:10.741Z,15.60
2018-09-23T05:58:38.812Z,15.70
2018-09-23T06:01:07.247Z,15.70
2018-09-23T06:03:35.350Z,15.70
2018-09-23T06:06:03.558Z,15.80
2018-09-23T06:08:31.779Z,15.90
2018-09-23T06:11:00.043Z,16.00
2018-09-23T06:13:28.134Z,16.00
2018-09-23T06:15:56.324Z,16.10
2018-09-23T06:18:24.484Z,16.20
2018-09-23T06:20:52.699Z,16.20
2018-09-23T06:23:21.168Z,16.30
2018-09-23T06:25:49.311Z,16.40
2018-09-23T06:28:17.491Z,16.50
2018-09-23T06:30:45.703Z,16.60
2018-09-23T06:33:13.936Z,16.60
2018-09-23T06:35:42.184Z,16.70
2018-09-23T06:38:10.331Z,16.80
2018-09-23T06:40:38.520Z,16.90
2018-09-23T06:43:06.737Z,17.00
2018-09-23T06:45:34.982Z,17.10
2018-09-23T06:48:03.161Z,17.20
2018-09-23T06:50:31.410Z,17.20
2018-09-23T06:52:59.688Z,17.20
2018-09-23T06:55:27.812Z,17.20
2018-09-23T06:57:55.922Z,17.20
2018-09-23T07:00:24.195Z,17.20
2018-09-23T07:02:52.396Z,17.30
2018-09-23T07:05:20.616Z,17.40
2018-09-23T07:07:49.464Z,17.40
2018-09-23T07:10:17.636Z,17.50
2018-09-23T07:12:45.898Z,17.60
2018-09-23T07:15:14.174Z,17.70
2018-09-23T07:17:42.378Z,17.90
2018-09-23T07:20:10.980Z,18.00
2018-09-23T07:22:39.269Z,18.20
2018-09-23T07:25:07.552Z,18.30
2018-09-23T07:27:36.008Z,18.40
2018-09-23T07:30:04.629Z,18.40
2018-09-23T07:32:32.782Z,18.50
2018-09-23T07:35:01.081Z,18.60
2018-09-23T07:37:29.443Z,18.60
2018-09-23T07:39:57.825Z,18.70
2018-09-23T07:42:25.982Z,18.70
2018-09-23T07:44:54.211Z,18.80
2018-09-23T07:47:22.390Z,18.80
2018-09-23T07:49:50.736Z,19.00
2018-09-23T07:52:18.954Z,19.00
2018-09-23T07:54:47.456Z,19.00
2018-09-23T07:57:15.654Z,19.10
2018-09-23T07:59:43.800Z,19.10
2018-09-23T08:02:11.972Z,19.20
2018-09-23T08:04:40.225Z,19.20
2018-09-23T08:07:08.776Z,19.20
2018-09-23T08:09:36.985Z,19.30
2018-09-23T08:12:05.229Z,19.40
2018-09-23T08:14:33.993Z,19.30
2018-09-23T08:17:01.887Z,19.30
2018-09-23T08:19:30.128Z,19.30
2018-09-23T08:21:58.555Z,19.40
2018-09-23T08:24:26.883Z,19.40
2018-09-23T08:26:55.134Z,19.40
2018-09-23T08:29:23.337Z,19.50
2018-09-23T08:31:51.541Z,19.50
2018-09-23T08:34:19.816Z,19.70
2018-09-23T08:36:48.015Z,19.80
2018-09-23T08:39:16.289Z,19.90
2018-09-23T08:41:44.648Z,19.90
2018-09-23T08:44:12.843Z,20.10
2018-09-23T08:46:41.025Z,20.10
2018-09-23T08:49:09.248Z,20.20
2018-09-23T08:51:37.582Z,20.20
2018-09-23T08:54:05.793Z,20.10
2018-09-23T08:56:34.046Z,20.00
2018-09-23T08:59:02.299Z,20.00
2018-09-23T09:01:30.517Z,19.90
2018-09-23T09:03:58.731Z,19.90
2018-09-23T09:06:27.001Z,20.00
2018-09-23T09:08:55.260Z,20.00
2018-09-23T09:11:23.476Z,19.90
2018-09-23T09:13:51.608Z,19.90
2018-09-23T09:16:19.844Z,20.00
2018-09-23T09:18:48.144Z,20.00
2018-09-23T09:21:16.315Z,20.10
2018-09-23T09:23:44.568Z,20.00
2018-09-23T09:26:12.796Z,19.90
2018-09-23T09:28:40.970Z,20.00
2018-09-23T09:31:09.402Z,20.00
2018-09-23T09:33:37.675Z,20.10
2018-09-23T09:36:06.100Z,20.30
2018-09-23T09:38:34.421Z,20.50
2018-09-23T09:41:02.564Z,20.70
2018-09-23T09:43:30.781Z,20.80
2018-09-23T09:45:58.990Z,20.90
2018-09-23T09:48:27.333Z,20.90
2018-09-23T09:50:55.503Z,21.00
2018-09-23T09:53:23.686Z,21.10
2018-09-23T09:55:51.874Z,21.30
2018-09-23T09:58:20.101Z,21.40
2018-09-23T10:00:49.092Z,21.40
2018-09-23T10:03:17.608Z,21.40
2018-09-23T10:05:45.823Z,21.50
2018-09-23T10:08:13.999Z,21.60
2018-09-23T10:10:42.249Z,21.70
2018-09-23T10:13:10.756Z,21.80
2018-09-23T10:15:38.976Z,21.80
2018-09-23T10:18:07.210Z,21.90
2018-09-23T10:20:35.524Z,22.00
2018-09-23T10:23:03.758Z,22.10
2018-09-23T10:25:38.764Z,22.20
2018-09-23T10:28:07.019Z,22.30
2018-09-23T10:30:35.265Z,22.40
2018-09-23T10:33:03.555Z,22.40
2018-09-23T10:35:31.792Z,22.50
2018-09-23T10:38:06.960Z,22.60
2018-09-23T10:40:35.323Z,22.70
2018-09-23T10:43:03.593Z,22.80
2018-09-23T10:45:32.213Z,22.80
2018-09-23T10:48:00.475Z,22.70
2018-09-23T10:50:28.757Z,22.80
2018-09-23T10:52:56.978Z,22.80
2018-09-23T10:55:25.287Z,22.90
2018-09-23T10:57:53.455Z,23.00
2018-09-23T11:00:21.662Z,23.10
2018-09-23T11:02:49.970Z,23.20
2018-09-23T11:05:18.267Z,23.20
2018-09-23T11:07:46.565Z,23.20
2018-09-23T11:10:14.966Z,23.20
2018-09-23T11:12:43.205Z,23.10
2018-09-23T11:15:11.382Z,23.20
2018-09-23T11:17:39.516Z,23.20
2018-09-23T11:20:07.796Z,23.20
2018-09-23T11:22:36.089Z,23.20
2018-09-23T11:25:04.428Z,23.10
2018-09-23T11:27:32.816Z,23.10
2018-09-23T11:30:01.092Z,23.20
2018-09-23T11:32:29.385Z,23.20
2018-09-23T11:34:57.764Z,23.20
2018-09-23T11:37:25.959Z,23.20
2018-09-23T11:39:54.285Z,23.20
2018-09-23T11:42:22.463Z,23.20
2018-09-23T11:44:50.764Z,23.20
2018-09-23T11:47:19.003Z,23.30
2018-09-23T11:49:47.234Z,23.30
2018-09-23T11:52:15.402Z,23.30
2018-09-23T11:54:43.624Z,23.30
2018-09-23T11:57:11.862Z,23.30
2018-09-23T11:59:40.172Z,23.30
2018-09-23T12:02:08.845Z,23.30
2018-09-23T12:04:37.100Z,23.40
2018-09-23T12:07:05.419Z,23.40
2018-09-23T12:09:33.641Z,23.50
2018-09-23T12:12:01.875Z,23.50
2018-09-23T12:14:30.201Z,23.50
2018-09-23T12:16:58.380Z,23.50
2018-09-23T12:19:26.637Z,23.50
2018-09-23T12:21:54.869Z,23.50
2018-09-23T12:24:23.108Z,23.50
2018-09-23T12:26:51.433Z,23.30
2018-09-23T12:29:19.637Z,23.30
2018-09-23T12:31:47.876Z,23.40
2018-09-23T12:34:16.296Z,23.40
2018-09-23T12:36:44.504Z,23.60
2018-09-23T12:39:12.747Z,23.70
2018-09-23T12:41:41.008Z,23.90
2018-09-23T12:44:10.281Z,23.80
2018-09-23T12:46:38.539Z,23.80
2018-09-23T12:49:06.952Z,23.80
2018-09-23T12:51:35.204Z,23.70
2018-09-23T12:54:03.483Z,23.70
2018-09-23T12:56:31.740Z,23.70
2018-09-23T12:58:59.941Z,23.70
2018-09-23T13:01:28.171Z,23.70
2018-09-23T13:03:56.333Z,23.70
2018-09-23T13:06:24.573Z,23.80
2018-09-23T13:08:52.765Z,23.80
2018-09-23T13:11:21.059Z,23.90
2018-09-23T13:13:49.229Z,24.00
2018-09-23T13:16:17.436Z,24.00
2018-09-23T13:18:45.747Z,24.00
2018-09-23T13:21:14.023Z,24.00
2018-09-23T13:23:42.240Z,24.00
2018-09-23T13:26:10.649Z,24.10
2018-09-23T13:28:38.907Z,24.10
2018-09-23T13:31:07.404Z,24.10
2018-09-23T13:33:35.630Z,24.10
2018-09-23T13:36:03.853Z,24.20
2018-09-23T13:38:32.125Z,24.30
2018-09-23T13:41:00.387Z,24.40
2018-09-23T13:43:28.628Z,24.30
2018-09-23T13:45:56.911Z,24.20
2018-09-23T13:48:28.492Z,24.20
2018-09-23T13:50:56.759Z,24.10
2018-09-23T13:53:25.018Z,24.20
2018-09-23T13:55:53.307Z,24.30
2018-09-23T13:58:21.776Z,24.30
2018-09-23T14:00:49.969Z,24.30
2018-09-23T14:03:18.231Z,24.10
2018-09-23T14:05:46.599Z,24.00
2018-09-23T14:08:14.784Z,23.90
2018-09-23T14:10:43.038Z,23.90
2018-09-23T14:13:11.315Z,24.00
2018-09-23T14:15:39.471Z,23.90
2018-09-23T14:18:07.731Z,23.80
2018-09-23T14:20:36.057Z,23.80
2018-09-23T14:23:04.350Z,23.80
2018-09-23T14:25:32.529Z,23.90
2018-09-23T14:28:00.684Z,24.00
2018-09-23T14:30:28.948Z,24.00
2018-09-23T14:32:57.140Z,24.10
2018-09-23T14:35:25.344Z,24.10
2018-09-23T14:37:53.628Z,24.10
2018-09-23T14:40:21.990Z,24.10
2018-09-23T14:42:50.312Z,24.10
2018-09-23T14:45:18.533Z,24.10
2018-09-23T14:47:46.759Z,24.10
2018-09-23T14:50:14.993Z,24.10
2018-09-23T14:52:43.173Z,24.00
2018-09-23T14:55:11.381Z,24.00
2018-09-23T14:57:39.685Z,24.00
2018-09-23T15:00:08.016Z,24.00
2018-09-23T15:02:36.250Z,23.90
2018-09-23T15:05:05.611Z,23.80
2018-09-23T15:07:33.843Z,23.70
2018-09-23T15:10:02.096Z,23.80
2018-09-23T15:12:30.344Z,23.80
2018-09-23T15:14:58.626Z,23.80
2018-09-23T15:17:26.812Z,23.80
2018-09-23T15:19:54.986Z,23.80
2018-09-23T15:22:23.155Z,24.00
2018-09-23T15:24:51.464Z,24.00
2018-09-23T15:27:19.763Z,24.00
2018-09-23T15:29:47.978Z,24.00
2018-09-23T15:32:16.163Z,24.10
2018-09-23T15:34:44.392Z,24.10
2018-09-23T15:37:12.579Z,24.10
2018-09-23T15:39:40.797Z,24.00
2018-09-23T15:42:09.096Z,23.90
2018-09-23T15:44:37.278Z,23.90
2018-09-23T15:47:05.799Z,23.90
2018-09-23T15:49:34.102Z,23.90
2018-09-23T15:52:02.411Z,23.80
2018-09-23T15:54:30.650Z,23.80
2018-09-23T15:56:58.935Z,23.80
2018-09-23T15:59:27.176Z,23.80
2018-09-23T16:01:55.444Z,23.70
2018-09-23T16:04:23.779Z,23.60
2018-09-23T16:06:52.047Z,23.60
2018-09-23T16:09:20.332Z,23.60
2018-09-23T16:11:48.586Z,23.50
2018-09-23T16:14:16.805Z,23.60
2018-09-23T16:16:45.032Z,23.50
2018-09-23T16:19:13.426Z,23.50
2018-09-23T16:21:41.560Z,23.50
2018-09-23T16:24:09.791Z,23.50
2018-09-23T16:26:38.042Z,23.50
2018-09-23T16:29:06.416Z,23.50
2018-09-23T16:31:34.695Z,23.50
2018-09-23T16:34:02.906Z,23.50
2018-09-23T16:36:31.152Z,23.40
2018-09-23T16:38:59.546Z,23.20
2018-09-23T16:41:27.793Z,22.90
2018-09-23T16:43:56.076Z,22.70
2018-09-23T16:46:24.306Z,22.50
2018-09-23T16:48:52.517Z,22.40
2018-09-23T16:51:20.721Z,22.00
2018-09-23T16:53:48.959Z,20.80
2018-09-23T16:56:17.460Z,19.10
2018-09-23T16:58:45.664Z,18.00
2018-09-23T17:01:13.848Z,17.20
2018-09-23T17:03:42.111Z,17.10
2018-09-23T17:06:10.375Z,17.10
2018-09-23T17:08:38.607Z,17.10
2018-09-23T17:11:06.923Z,17.10
2018-09-23T17:13:35.184Z,17.00
2018-09-23T17:16:03.475Z,17.00
2018-09-23T17:18:31.679Z,16.90
2018-09-23T17:20:59.968Z,16.90
2018-09-23T17:23:28.214Z,16.90
2018-09-23T17:25:56.462Z,16.90
2018-09-23T17:28:24.753Z,16.80
2018-09-23T17:30:52.961Z,16.70
2018-09-23T17:33:21.223Z,16.70
2018-09-23T17:35:49.620Z,16.60
2018-09-23T17:38:17.930Z,16.60
2018-09-23T17:40:46.248Z,16.50
2018-09-23T17:43:14.492Z,16.40
2018-09-23T17:45:42.847Z,16.40
2018-09-23T17:48:11.097Z,16.30
2018-09-23T17:50:39.358Z,16.30
2018-09-23T17:53:07.606Z,16.30
2018-09-23T17:55:35.900Z,16.20
2018-09-23T17:58:04.218Z,16.20
2018-09-23T18:00:32.521Z,16.10
2018-09-23T18:03:00.854Z,16.10
2018-09-23T18:05:29.105Z,16.10
2018-09-23T18:07:57.418Z,16.00
2018-09-23T18:10:25.581Z,16.00
2018-09-23T18:12:53.788Z,16.00
2018-09-23T18:15:22.071Z,15.90
2018-09-23T18:17:50.284Z,15.90
2018-09-23T18:20:18.629Z,15.90
2018-09-23T18:22:46.872Z,15.90
2018-09-23T18:25:15.259Z,15.90
2018-09-23T18:27:43.665Z,15.90
2018-09-23T18:30:11.888Z,15.90
2018-09-23T18:32:40.157Z,15.90
2018-09-23T18:35:09.315Z,15.90
2018-09-23T18:37:37.783Z,15.80
2018-09-23T18:40:07.021Z,15.70
2018-09-23T18:42:35.346Z,15.00
2018-09-23T18:45:03.739Z,14.20
2018-09-23T18:47:31.988Z,13.90
2018-09-23T18:50:00.379Z,13.70
2018-09-23T18:52:28.642Z,13.60
2018-09-23T18:55:02.348Z,13.60
2018-09-23T18:57:30.709Z,13.40
2018-09-23T18:59:59.001Z,13.20
2018-09-23T19:02:27.275Z,13.20
2018-09-23T19:04:55.564Z,13.10
2018-09-23T19:07:23.909Z,13.00
2018-09-23T19:09:52.138Z,13.00
2018-09-23T19:12:20.386Z,13.10
2018-09-23T19:14:48.665Z,12.90
2018-09-23T19:17:16.899Z,12.80
2018-09-23T19:19:50.736Z,12.80
2018-09-23T19:22:24.513Z,12.70
2018-09-23T19:24:53.023Z,12.70
2018-09-23T19:27:21.299Z,12.70
2018-09-23T19:29:49.557Z,12.70
2018-09-23T19:32:17.890Z,12.70
2018-09-23T19:34:46.235Z,12.60
2018-09-23T19:37:14.521Z,12.60
2018-09-23T19:39:42.728Z,12.60
2018-09-23T19:42:11.346Z,12.50
2018-09-23T19:44:39.679Z,12.50
2018-09-23T19:47:07.992Z,12.40
2018-09-23T19:49:36.313Z,12.50
2018-09-23T19:52:04.632Z,12.50
2018-09-23T19:54:32.886Z,12.50
2018-09-23T19:57:01.124Z,12.40
2018-09-23T19:59:29.420Z,12.50
2018-09-23T20:01:57.799Z,12.40
2018-09-23T20:04:26.140Z,12.40
2018-09-23T20:06:54.431Z,12.40
2018-09-23T20:09:22.661Z,12.40
2018-09-23T20:11:50.988Z,12.40
2018-09-23T20:14:19.350Z,12.50
2018-09-23T20:16:47.557Z,12.50
2018-09-23T20:19:16.022Z,12.40
2018-09-23T20:21:44.308Z,12.50
2018-09-23T20:24:12.594Z,12.40
2018-09-23T20:26:41.029Z,12.30
2018-09-23T20:29:10.249Z,12.30
2018-09-23T20:31:38.476Z,12.30
2018-09-23T20:34:07.154Z,12.30
2018-09-23T20:36:35.319Z,12.20
2018-09-23T20:39:05.139Z,12.20
2018-09-23T20:41:33.397Z,12.20
2018-09-23T20:44:01.649Z,12.20
2018-09-23T20:46:29.844Z,12.20
2018-09-23T20:48:58.133Z,12.20
2018-09-23T20:51:26.378Z,12.10
2018-09-23T20:53:54.678Z,12.10
2018-09-23T20:56:22.948Z,12.10
2018-09-23T20:58:51.151Z,12.10
2018-09-23T21:01:19.400Z,12.10
2018-09-23T21:03:48.473Z,12.00
2018-09-23T21:06:16.862Z,12.00
2018-09-23T21:08:45.105Z,11.90
2018-09-23T21:11:13.291Z,11.90
2018-09-23T21:13:41.517Z,11.90
2018-09-23T21:16:09.774Z,11.80
2018-09-23T21:18:37.877Z,11.90
2018-09-23T21:21:06.311Z,11.70
2018-09-23T21:23:34.565Z,11.60
2018-09-23T21:26:02.825Z,11.60
2018-09-23T21:28:31.129Z,11.60
2018-09-23T21:30:59.388Z,11.60
2018-09-23T21:33:27.565Z,11.60
2018-09-23T21:35:55.813Z,11.50
2018-09-23T21:38:24.038Z,11.50
2018-09-23T21:40:52.222Z,11.40
2018-09-23T21:43:20.405Z,11.40
2018-09-23T21:45:48.574Z,11.40
2018-09-23T21:48:16.770Z,11.30
2018-09-23T21:50:46.132Z,11.30
2018-09-23T21:53:14.431Z,11.30
2018-09-23T21:55:42.687Z,11.30
2018-09-23T21:58:10.881Z,11.30
2018-09-23T22:00:41.078Z,11.30
2018-09-23T22:03:09.415Z,11.40
2018-09-23T22:05:37.872Z,11.40
2018-09-23T22:08:06.055Z,11.50
2018-09-23T22:10:34.268Z,11.50
2018-09-23T22:13:03.173Z,11.50
2018-09-23T22:15:31.483Z,11.60
2018-09-23T22:17:59.662Z,11.60
2018-09-23T22:20:28.320Z,11.60
2018-09-23T22:22:56.651Z,11.50
2018-09-23T22:25:24.897Z,11.40
2018-09-23T22:27:53.747Z,11.40
2018-09-23T22:30:22.363Z,11.40
2018-09-23T22:32:50.559Z,11.40
2018-09-23T22:35:18.796Z,11.40
2018-09-23T22:37:46.940Z,11.50
2018-09-23T22:40:15.100Z,11.40
2018-09-23T22:42:43.256Z,11.50
2018-09-23T22:45:11.547Z,11.60
2018-09-23T22:47:40.316Z,11.60
2018-09-23T22:50:08.651Z,11.40
2018-09-23T22:52:36.791Z,11.40
2018-09-23T22:55:06.092Z,11.40
2018-09-23T22:57:35.232Z,11.40
2018-09-23T23:00:03.574Z,11.40
2018-09-23T23:02:31.839Z,11.30
2018-09-23T23:05:00.101Z,11.40
2018-09-23T23:07:28.247Z,11.30
2018-09-23T23:09:56.438Z,11.20
2018-09-23T23:12:24.702Z,11.30
2018-09-23T23:14:52.887Z,11.20
2018-09-23T23:17:21.104Z,11.30
2018-09-23T23:19:49.312Z,11.20
2018-09-23T23:22:17.463Z,11.20
2018-09-23T23:24:45.684Z,11.00
2018-09-23T23:27:13.868Z,11.10
2018-09-23T23:29:42.085Z,11.20
2018-09-23T23:32:10.284Z,11.20
2018-09-23T23:34:38.487Z,11.20
2018-09-23T23:37:06.690Z,11.20
2018-09-23T23:39:34.845Z,11.10
2018-09-23T23:42:03.177Z,11.00
2018-09-23T23:44:31.386Z,10.90
2018-09-23T23:46:59.743Z,10.80
2018-09-23T23:49:27.879Z,10.80
2018-09-23T23:51:56.071Z,10.50
2018-09-23T23:54:24.276Z,10.60
2018-09-23T23:56:53.239Z,10.60
2018-09-23T23:59:21.454Z,10.70
